الصفحة الرئيسية
METAR-TAF:

METAR-TAF

مطار :

Sunlight Mountain, كولورادو, الولايات المتحدة

دائرة عرض: 39-25-32N, خط طول: 107-22-45W, ارتفاع: 3232 متر

مراقبة الطقس الحالي

تاريخ ووقت الإصدار 16 دقيقة قبل الساعة 18:51UTC
ريح 5 عقدة من الشمال/الشمال الغربي
درجة الحرارة 18°درجة مئوية
الرطوبة 28%
ضغط 1034 hPa
الرؤية: 16.1 كم
سماء صافية

METAR: K5SM 141851Z AUTO 33005KT 10SM CLR 18/M01 A3052 RMK AO2 LTG DSNT NW

زمن: 13:07 (19:07 UTC)


TAF: مفقودة

أرصاد الطقس والتوقعات من أكثر من 4000 مطار (تقارير الطقس للمطار METAR والتنبؤ بالطقس بالمطارTAF).

المحطات المتاحة هي النقط الصفراء والحمراء على الخريطة.

حرك المؤشر فوق النقطة لمعرفة اسم المحطة.

ثم انقر لمعرفة أرصاد وتوقعات الطقس.

لتغيير الخارطة: اضغط على الأزرار الخضراء مع رمز الصليب الأسود للتكبير. على الزر الأخضر مع شرطة للتصغير، أو على الأسهم الخضراء للخرائط المجاورة.


METAR-TAF: